sensor_id;sensor_type;location;lat;lon;timestamp;pressure;altitude;pressure_sealevel;temperature;humidity
54306;BME280;66145;45.188;5.712;2023-03-11T00:00:55;98535.31;;;20.09;41.91
54306;BME280;66145;45.188;5.712;2023-03-11T00:03:20;98497.59;;;19.85;42.11
54306;BME280;66145;45.188;5.712;2023-03-11T00:05:50;98526.84;;;20.02;42.07
54306;BME280;66145;45.188;5.712;2023-03-11T00:08:19;98545.63;;;20.12;41.90
54306;BME280;66145;45.188;5.712;2023-03-11T00:10:46;98545.72;;;20.16;41.86
54306;BME280;66145;45.188;5.712;2023-03-11T00:13:14;98522.59;;;20.04;41.84
54306;BME280;66145;45.188;5.712;2023-03-11T00:15:41;98534.28;;;20.14;42.16
54306;BME280;66145;45.188;5.712;2023-03-11T00:18:06;98524.91;;;20.15;41.97
54306;BME280;66145;45.188;5.712;2023-03-11T00:20:35;98512.66;;;20.12;41.58
54306;BME280;66145;45.188;5.712;2023-03-11T00:23:03;98467.09;;;19.86;41.77
54306;BME280;66145;45.188;5.712;2023-03-11T00:25:31;98463.25;;;19.87;42.00
54306;BME280;66145;45.188;5.712;2023-03-11T00:27:57;98475.38;;;19.99;41.99
54306;BME280;66145;45.188;5.712;2023-03-11T00:30:24;98499.63;;;20.09;41.94
54306;BME280;66145;45.188;5.712;2023-03-11T00:32:55;98496.09;;;20.09;42.00
54306;BME280;66145;45.188;5.712;2023-03-11T00:35:24;98480.28;;;20.05;41.82
54306;BME280;66145;45.188;5.712;2023-03-11T00:37:53;98490.25;;;20.10;41.88
54306;BME280;66145;45.188;5.712;2023-03-11T00:40:21;98464.50;;;20.02;41.91
54306;BME280;66145;45.188;5.712;2023-03-11T00:42:46;98456.63;;;20.01;41.75
54306;BME280;66145;45.188;5.712;2023-03-11T00:45:12;98465.78;;;20.17;41.80
54306;BME280;66145;45.188;5.712;2023-03-11T00:47:38;98468.16;;;20.19;41.59
54306;BME280;66145;45.188;5.712;2023-03-11T00:50:05;98467.59;;;20.13;41.75
54306;BME280;66145;45.188;5.712;2023-03-11T00:52:31;98468.25;;;19.85;42.56
54306;BME280;66145;45.188;5.712;2023-03-11T00:54:57;98473.56;;;20.03;42.25
54306;BME280;66145;45.188;5.712;2023-03-11T00:57:23;98438.38;;;19.84;42.37
54306;BME280;66145;45.188;5.712;2023-03-11T00:59:48;98459.53;;;19.71;42.88
54306;BME280;66145;45.188;5.712;2023-03-11T01:02:13;98459.63;;;19.62;43.21
54306;BME280;66145;45.188;5.712;2023-03-11T01:04:39;98457.88;;;19.57;43.31
54306;BME280;66145;45.188;5.712;2023-03-11T01:07:04;98439.84;;;19.56;43.29
54306;BME280;66145;45.188;5.712;2023-03-11T01:09:29;98452.06;;;19.59;43.07
54306;BME280;66145;45.188;5.712;2023-03-11T01:11:55;98434.56;;;19.64;43.02
54306;BME280;66145;45.188;5.712;2023-03-11T01:14:21;98421.69;;;19.64;42.59
54306;BME280;66145;45.188;5.712;2023-03-11T01:16:46;98410.81;;;19.68;41.91
54306;BME280;66145;45.188;5.712;2023-03-11T01:19:12;98430.97;;;19.84;42.40
54306;BME280;66145;45.188;5.712;2023-03-11T01:21:38;98415.97;;;19.82;42.38
54306;BME280;66145;45.188;5.712;2023-03-11T01:24:03;98412.34;;;19.90;42.19
54306;BME280;66145;45.188;5.712;2023-03-11T01:26:29;98401.91;;;19.83;42.08
54306;BME280;66145;45.188;5.712;2023-03-11T01:28:54;98405.38;;;19.93;42.14
54306;BME280;66145;45.188;5.712;2023-03-11T01:31:19;98411.22;;;19.91;41.82
54306;BME280;66145;45.188;5.712;2023-03-11T01:33:45;98399.50;;;19.82;42.01
54306;BME280;66145;45.188;5.712;2023-03-11T01:36:10;98408.19;;;19.84;42.14
54306;BME280;66145;45.188;5.712;2023-03-11T01:38:36;98393.78;;;19.74;42.36
54306;BME280;66145;45.188;5.712;2023-03-11T01:41:01;98396.31;;;19.80;42.47
54306;BME280;66145;45.188;5.712;2023-03-11T01:48:35;98353.41;;;19.63;41.85
54306;BME280;66145;45.188;5.712;2023-03-11T01:51:04;98385.09;;;19.85;41.98
54306;BME280;66145;45.188;5.712;2023-03-11T01:53:30;98347.25;;;19.78;42.15
54306;BME280;66145;45.188;5.712;2023-03-11T01:55:56;98362.81;;;19.86;42.06
54306;BME280;66145;45.188;5.712;2023-03-11T01:58:27;98342.94;;;19.89;42.05
54306;BME280;66145;45.188;5.712;2023-03-11T02:00:55;98346.25;;;19.95;41.85
54306;BME280;66145;45.188;5.712;2023-03-11T02:03:26;98359.16;;;19.95;41.93
54306;BME280;66145;45.188;5.712;2023-03-11T02:05:54;98361.13;;;19.94;42.15
54306;BME280;66145;45.188;5.712;2023-03-11T02:08:21;98338.13;;;19.99;41.90
54306;BME280;66145;45.188;5.712;2023-03-11T02:10:47;98314.81;;;19.93;42.11
54306;BME280;66145;45.188;5.712;2023-03-11T02:13:14;98338.03;;;19.95;41.89
54306;BME280;66145;45.188;5.712;2023-03-11T02:15:41;98322.47;;;19.87;41.90
54306;BME280;66145;45.188;5.712;2023-03-11T02:18:07;98307.47;;;19.84;41.85
54306;BME280;66145;45.188;5.712;2023-03-11T02:23:32;98307.00;;;19.82;42.13
54306;BME280;66145;45.188;5.712;2023-03-11T02:26:32;98306.09;;;19.78;42.47
54306;BME280;66145;45.188;5.712;2023-03-11T02:28:55;98299.69;;;19.74;42.41
54306;BME280;66145;45.188;5.712;2023-03-11T02:31:22;98298.66;;;19.66;42.36
54306;BME280;66145;45.188;5.712;2023-03-11T02:33:50;98268.94;;;19.68;42.31
54306;BME280;66145;45.188;5.712;2023-03-11T02:36:36;98259.81;;;19.76;42.10
54306;BME280;66145;45.188;5.712;2023-03-11T02:39:03;98252.38;;;19.77;42.03
54306;BME280;66145;45.188;5.712;2023-03-11T02:41:29;98260.47;;;19.86;42.11
54306;BME280;66145;45.188;5.712;2023-03-11T02:43:56;98253.53;;;19.88;42.14
54306;BME280;66145;45.188;5.712;2023-03-11T02:46:21;98246.88;;;19.89;42.42
54306;BME280;66145;45.188;5.712;2023-03-11T02:48:47;98251.94;;;19.87;42.07
54306;BME280;66145;45.188;5.712;2023-03-11T02:51:13;98231.22;;;19.78;42.80
54306;BME280;66145;45.188;5.712;2023-03-11T02:53:45;98244.50;;;19.88;42.83
54306;BME280;66145;45.188;5.712;2023-03-11T02:56:11;98229.06;;;19.71;42.85
54306;BME280;66145;45.188;5.712;2023-03-11T02:58:36;98233.50;;;19.75;43.02
54306;BME280;66145;45.188;5.712;2023-03-11T03:01:02;98236.16;;;19.72;43.40
54306;BME280;66145;45.188;5.712;2023-03-11T03:03:27;98220.84;;;19.71;43.13
54306;BME280;66145;45.188;5.712;2023-03-11T03:05:53;98227.00;;;19.68;43.38
54306;BME280;66145;45.188;5.712;2023-03-11T03:08:18;98218.31;;;19.66;43.08
54306;BME280;66145;45.188;5.712;2023-03-11T03:10:43;98187.63;;;19.48;43.34
54306;BME280;66145;45.188;5.712;2023-03-11T03:13:09;98223.78;;;19.78;43.34
54306;BME280;66145;45.188;5.712;2023-03-11T03:15:34;98241.94;;;19.83;43.22
54306;BME280;66145;45.188;5.712;2023-03-11T03:17:59;98236.25;;;19.75;43.10
54306;BME280;66145;45.188;5.712;2023-03-11T03:20:25;98246.53;;;19.91;42.91
54306;BME280;66145;45.188;5.712;2023-03-11T03:22:51;98217.16;;;19.79;42.96
54306;BME280;66145;45.188;5.712;2023-03-11T03:25:16;98233.16;;;19.89;43.59
54306;BME280;66145;45.188;5.712;2023-03-11T03:27:42;98229.28;;;19.90;43.83
54306;BME280;66145;45.188;5.712;2023-03-11T03:30:08;98226.75;;;19.98;43.31
54306;BME280;66145;45.188;5.712;2023-03-11T03:32:34;98211.56;;;19.88;43.18
54306;BME280;66145;45.188;5.712;2023-03-11T03:35:00;98234.97;;;19.98;43.63
54306;BME280;66145;45.188;5.712;2023-03-11T03:37:27;98221.16;;;19.94;43.30
54306;BME280;66145;45.188;5.712;2023-03-11T03:39:53;98212.81;;;19.90;43.54
54306;BME280;66145;45.188;5.712;2023-03-11T03:42:19;98181.03;;;19.77;43.35
54306;BME280;66145;45.188;5.712;2023-03-11T03:44:45;98194.88;;;19.81;43.97
54306;BME280;66145;45.188;5.712;2023-03-11T03:47:10;98202.19;;;19.76;43.68
54306;BME280;66145;45.188;5.712;2023-03-11T03:49:36;98187.09;;;19.70;43.46
54306;BME280;66145;45.188;5.712;2023-03-11T03:52:04;98191.78;;;19.82;43.62
54306;BME280;66145;45.188;5.712;2023-03-11T03:54:29;98199.66;;;19.84;43.66
54306;BME280;66145;45.188;5.712;2023-03-11T03:56:55;98193.50;;;19.87;43.48
54306;BME280;66145;45.188;5.712;2023-03-11T03:59:21;98167.44;;;19.81;44.14
54306;BME280;66145;45.188;5.712;2023-03-11T04:01:46;98183.06;;;19.93;43.44
54306;BME280;66145;45.188;5.712;2023-03-11T04:04:12;98188.56;;;19.93;43.63
54306;BME280;66145;45.188;5.712;2023-03-11T04:06:37;98206.63;;;19.94;43.38
54306;BME280;66145;45.188;5.712;2023-03-11T04:09:02;98206.28;;;19.95;43.41
54306;BME280;66145;45.188;5.712;2023-03-11T04:11:28;98189.38;;;19.93;43.28
54306;BME280;66145;45.188;5.712;2023-03-11T04:13:53;98186.19;;;19.91;43.78
54306;BME280;66145;45.188;5.712;2023-03-11T04:16:21;98177.84;;;19.87;43.45
54306;BME280;66145;45.188;5.712;2023-03-11T04:18:47;98199.31;;;19.85;43.78
54306;BME280;66145;45.188;5.712;2023-03-11T04:21:13;98163.56;;;19.69;43.71
54306;BME280;66145;45.188;5.712;2023-03-11T04:23:38;98210.75;;;19.75;44.09
54306;BME280;66145;45.188;5.712;2023-03-11T04:26:04;98209.59;;;19.76;44.06
54306;BME280;66145;45.188;5.712;2023-03-11T04:28:29;98166.66;;;19.68;44.14
54306;BME280;66145;45.188;5.712;2023-03-11T04:30:55;98161.19;;;19.68;43.88
54306;BME280;66145;45.188;5.712;2023-03-11T04:33:20;98167.75;;;19.79;43.50
54306;BME280;66145;45.188;5.712;2023-03-11T04:35:46;98182.16;;;19.76;43.67
54306;BME280;66145;45.188;5.712;2023-03-11T04:38:11;98157.97;;;19.66;44.00
54306;BME280;66145;45.188;5.712;2023-03-11T04:40:37;98169.38;;;19.80;43.74
54306;BME280;66145;45.188;5.712;2023-03-11T04:43:03;98168.09;;;19.90;43.97
54306;BME280;66145;45.188;5.712;2023-03-11T04:45:28;98194.50;;;19.95;43.26
54306;BME280;66145;45.188;5.712;2023-03-11T04:47:54;98203.56;;;19.95;43.92
54306;BME280;66145;45.188;5.712;2023-03-11T04:50:19;98167.16;;;19.86;43.64
54306;BME280;66145;45.188;5.712;2023-03-11T04:52:46;98175.81;;;19.72;44.83
54306;BME280;66145;45.188;5.712;2023-03-11T04:55:12;98174.41;;;20.19;44.00
54306;BME280;66145;45.188;5.712;2023-03-11T04:57:38;98158.91;;;20.27;43.49
54306;BME280;66145;45.188;5.712;2023-03-11T05:00:04;98193.25;;;20.49;43.30
54306;BME280;66145;45.188;5.712;2023-03-11T05:02:33;98145.41;;;20.50;43.44
54306;BME280;66145;45.188;5.712;2023-03-11T05:04:59;98160.81;;;20.39;43.24
54306;BME280;66145;45.188;5.712;2023-03-11T05:07:24;98176.22;;;20.43;43.17
54306;BME280;66145;45.188;5.712;2023-03-11T05:09:49;98169.94;;;20.43;43.26
54306;BME280;66145;45.188;5.712;2023-03-11T05:12:15;98178.13;;;20.55;43.28
54306;BME280;66145;45.188;5.712;2023-03-11T05:14:40;98162.69;;;20.50;43.00
54306;BME280;66145;45.188;5.712;2023-03-11T05:17:06;98170.13;;;20.50;43.15
54306;BME280;66145;45.188;5.712;2023-03-11T05:19:31;98168.63;;;20.52;43.28
54306;BME280;66145;45.188;5.712;2023-03-11T05:22:00;98178.63;;;20.45;43.05
54306;BME280;66145;45.188;5.712;2023-03-11T05:24:26;98192.19;;;20.54;42.81
54306;BME280;66145;45.188;5.712;2023-03-11T05:26:52;98182.72;;;20.51;43.39
54306;BME280;66145;45.188;5.712;2023-03-11T05:29:17;98176.31;;;20.47;43.21
54306;BME280;66145;45.188;5.712;2023-03-11T05:31:43;98140.78;;;20.38;43.25
54306;BME280;66145;45.188;5.712;2023-03-11T05:34:08;98143.72;;;20.45;42.96
54306;BME280;66145;45.188;5.712;2023-03-11T05:36:34;98147.00;;;20.51;43.12
54306;BME280;66145;45.188;5.712;2023-03-11T05:38:59;98124.50;;;20.45;43.11
54306;BME280;66145;45.188;5.712;2023-03-11T05:41:24;98132.97;;;20.40;43.01
54306;BME280;66145;45.188;5.712;2023-03-11T05:43:50;98166.44;;;20.58;43.03
54306;BME280;66145;45.188;5.712;2023-03-11T05:46:15;98131.50;;;20.59;42.88
54306;BME280;66145;45.188;5.712;2023-03-11T05:48:40;98106.78;;;20.59;42.82
54306;BME280;66145;45.188;5.712;2023-03-11T05:51:08;98096.84;;;20.38;43.17
54306;BME280;66145;45.188;5.712;2023-03-11T05:53:34;98151.25;;;20.64;42.83
54306;BME280;66145;45.188;5.712;2023-03-11T05:56:00;98120.16;;;20.44;42.93
54306;BME280;66145;45.188;5.712;2023-03-11T05:58:27;98108.53;;;20.51;43.23
54306;BME280;66145;45.188;5.712;2023-03-11T06:00:52;98154.19;;;20.56;42.99
54306;BME280;66145;45.188;5.712;2023-03-11T06:03:18;98159.94;;;20.50;42.87
54306;BME280;66145;45.188;5.712;2023-03-11T06:05:47;98145.59;;;20.57;42.94
54306;BME280;66145;45.188;5.712;2023-03-11T06:08:13;98143.13;;;20.68;43.11
54306;BME280;66145;45.188;5.712;2023-03-11T06:10:39;98164.03;;;20.73;42.62
54306;BME280;66145;45.188;5.712;2023-03-11T06:13:05;98132.47;;;20.50;42.55
54306;BME280;66145;45.188;5.712;2023-03-11T06:15:32;98156.53;;;20.86;42.50
54306;BME280;66145;45.188;5.712;2023-03-11T06:17:57;98159.38;;;20.89;42.53
54306;BME280;66145;45.188;5.712;2023-03-11T06:20:24;98176.31;;;20.91;42.35
54306;BME280;66145;45.188;5.712;2023-03-11T06:22:49;98170.53;;;20.96;42.33
54306;BME280;66145;45.188;5.712;2023-03-11T06:25:15;98187.03;;;20.96;42.39
54306;BME280;66145;45.188;5.712;2023-03-11T06:27:40;98128.41;;;20.60;42.24
54306;BME280;66145;45.188;5.712;2023-03-11T06:30:06;98179.41;;;20.90;42.45
54306;BME280;66145;45.188;5.712;2023-03-11T06:32:32;98194.28;;;20.89;42.55
54306;BME280;66145;45.188;5.712;2023-03-11T06:34:59;98168.13;;;20.79;42.49
54306;BME280;66145;45.188;5.712;2023-03-11T06:37:24;98190.56;;;20.81;42.48
54306;BME280;66145;45.188;5.712;2023-03-11T06:39:53;98175.16;;;20.76;42.48
54306;BME280;66145;45.188;5.712;2023-03-11T06:42:19;98167.50;;;20.86;42.56
54306;BME280;66145;45.188;5.712;2023-03-11T06:44:47;98143.31;;;20.75;42.41
54306;BME280;66145;45.188;5.712;2023-03-11T06:47:12;98212.66;;;21.01;42.33
54306;BME280;66145;45.188;5.712;2023-03-11T06:49:38;98164.50;;;20.75;42.58
54306;BME280;66145;45.188;5.712;2023-03-11T06:52:06;98183.03;;;20.94;42.38
54306;BME280;66145;45.188;5.712;2023-03-11T06:54:32;98182.69;;;20.95;42.37
54306;BME280;66145;45.188;5.712;2023-03-11T06:56:57;98150.63;;;20.71;42.32
54306;BME280;66145;45.188;5.712;2023-03-11T06:59:23;98188.78;;;20.89;42.40
54306;BME280;66145;45.188;5.712;2023-03-11T07:01:49;98194.13;;;20.81;42.24
54306;BME280;66145;45.188;5.712;2023-03-11T07:04:14;98177.69;;;20.69;42.57
54306;BME280;66145;45.188;5.712;2023-03-11T07:06:40;98183.97;;;20.70;42.44
54306;BME280;66145;45.188;5.712;2023-03-11T07:09:06;98212.31;;;20.86;42.37
54306;BME280;66145;45.188;5.712;2023-03-11T07:11:32;98196.25;;;20.88;42.32
54306;BME280;66145;45.188;5.712;2023-03-11T07:13:58;98207.34;;;20.92;42.36
54306;BME280;66145;45.188;5.712;2023-03-11T07:16:25;98185.78;;;20.78;42.19
54306;BME280;66145;45.188;5.712;2023-03-11T07:18:54;98221.34;;;21.03;42.11
54306;BME280;66145;45.188;5.712;2023-03-11T07:21:21;98240.34;;;21.08;42.02
54306;BME280;66145;45.188;5.712;2023-03-11T07:23:51;98235.09;;;21.03;42.26
54306;BME280;66145;45.188;5.712;2023-03-11T07:26:17;98217.38;;;21.00;42.18
54306;BME280;66145;45.188;5.712;2023-03-11T07:28:42;98236.94;;;20.99;42.28
54306;BME280;66145;45.188;5.712;2023-03-11T07:31:13;98226.66;;;20.95;42.43
54306;BME280;66145;45.188;5.712;2023-03-11T07:33:43;98241.84;;;20.89;42.47
54306;BME280;66145;45.188;5.712;2023-03-11T07:36:15;98254.50;;;20.94;42.43
54306;BME280;66145;45.188;5.712;2023-03-11T07:38:45;98261.97;;;20.93;42.37
54306;BME280;66145;45.188;5.712;2023-03-11T07:41:12;98258.84;;;20.95;42.38
54306;BME280;66145;45.188;5.712;2023-03-11T07:43:43;98250.25;;;20.96;42.09
54306;BME280;66145;45.188;5.712;2023-03-11T07:46:14;98245.97;;;20.83;42.30
54306;BME280;66145;45.188;5.712;2023-03-11T07:48:41;98258.25;;;21.02;42.33
54306;BME280;66145;45.188;5.712;2023-03-11T07:51:09;98280.44;;;21.09;42.32
54306;BME280;66145;45.188;5.712;2023-03-11T07:53:35;98287.69;;;21.01;42.44
54306;BME280;66145;45.188;5.712;2023-03-11T07:56:01;98264.28;;;20.91;42.31
54306;BME280;66145;45.188;5.712;2023-03-11T07:58:26;98260.16;;;20.57;42.97
54306;BME280;66145;45.188;5.712;2023-03-11T08:00:52;98271.72;;;20.21;43.96
54306;BME280;66145;45.188;5.712;2023-03-11T08:03:19;98283.56;;;20.10;44.35
54306;BME280;66145;45.188;5.712;2023-03-11T08:05:44;98301.63;;;20.11;44.19
54306;BME280;66145;45.188;5.712;2023-03-11T08:08:09;98290.09;;;20.05;44.44
54306;BME280;66145;45.188;5.712;2023-03-11T08:10:36;98277.06;;;19.89;43.84
54306;BME280;66145;45.188;5.712;2023-03-11T08:13:01;98303.34;;;20.15;43.73
54306;BME280;66145;45.188;5.712;2023-03-11T08:15:27;98299.53;;;20.20;43.40
54306;BME280;66145;45.188;5.712;2023-03-11T08:17:52;98297.03;;;20.15;43.43
54306;BME280;66145;45.188;5.712;2023-03-11T08:20:18;98302.06;;;20.25;43.40
54306;BME280;66145;45.188;5.712;2023-03-11T08:22:44;98305.84;;;20.20;43.47
54306;BME280;66145;45.188;5.712;2023-03-11T08:25:09;98305.84;;;20.20;43.46
54306;BME280;66145;45.188;5.712;2023-03-11T08:27:34;98306.19;;;20.19;43.80
54306;BME280;66145;45.188;5.712;2023-03-11T08:30:00;98320.59;;;20.16;43.47
54306;BME280;66145;45.188;5.712;2023-03-11T08:32:25;98326.22;;;20.07;43.78
54306;BME280;66145;45.188;5.712;2023-03-11T08:34:50;98339.38;;;20.01;43.98
54306;BME280;66145;45.188;5.712;2023-03-11T08:37:16;98342.69;;;19.95;43.98
54306;BME280;66145;45.188;5.712;2023-03-11T08:39:41;98346.59;;;19.94;43.95
54306;BME280;66145;45.188;5.712;2023-03-11T08:42:06;98340.53;;;19.88;44.04
54306;BME280;66145;45.188;5.712;2023-03-11T08:44:32;98349.66;;;19.80;44.58
54306;BME280;66145;45.188;5.712;2023-03-11T08:46:57;98367.97;;;19.75;44.83
54306;BME280;66145;45.188;5.712;2023-03-11T08:49:23;98334.91;;;19.84;44.27
54306;BME280;66145;45.188;5.712;2023-03-11T08:51:48;98378.25;;;19.79;44.21
54306;BME280;66145;45.188;5.712;2023-03-11T08:54:14;98365.44;;;19.58;44.87
54306;BME280;66145;45.188;5.712;2023-03-11T08:56:39;98357.66;;;19.48;44.84
54306;BME280;66145;45.188;5.712;2023-03-11T08:59:04;98361.94;;;19.24;45.34
54306;BME280;66145;45.188;5.712;2023-03-11T09:01:30;98370.75;;;19.29;45.44
54306;BME280;66145;45.188;5.712;2023-03-11T09:03:56;98374.16;;;19.26;45.92
54306;BME280;66145;45.188;5.712;2023-03-11T09:06:21;98378.38;;;19.24;45.77
54306;BME280;66145;45.188;5.712;2023-03-11T09:08:48;98371.75;;;19.25;45.40
54306;BME280;66145;45.188;5.712;2023-03-11T09:11:15;98366.28;;;19.25;45.40
54306;BME280;66145;45.188;5.712;2023-03-11T09:13:41;98351.31;;;19.22;45.06
54306;BME280;66145;45.188;5.712;2023-03-11T09:16:14;98378.97;;;19.42;45.03
54306;BME280;66145;45.188;5.712;2023-03-11T09:18:40;98366.66;;;19.36;44.95
54306;BME280;66145;45.188;5.712;2023-03-11T09:21:06;98343.88;;;19.23;44.74
54306;BME280;66145;45.188;5.712;2023-03-11T09:23:31;98362.66;;;19.45;44.64
54306;BME280;66145;45.188;5.712;2023-03-11T09:25:57;98321.06;;;19.31;44.37
54306;BME280;66145;45.188;5.712;2023-03-11T09:28:22;98366.22;;;19.58;44.17
54306;BME280;66145;45.188;5.712;2023-03-11T09:30:48;98370.91;;;19.58;44.15
54306;BME280;66145;45.188;5.712;2023-03-11T09:33:13;98378.78;;;19.59;44.51
54306;BME280;66145;45.188;5.712;2023-03-11T09:35:39;98377.53;;;19.57;44.36
54306;BME280;66145;45.188;5.712;2023-03-11T09:38:04;98373.63;;;19.45;44.41
54306;BME280;66145;45.188;5.712;2023-03-11T09:40:45;98372.91;;;19.36;44.69
54306;BME280;66145;45.188;5.712;2023-03-11T09:46:32;98381.97;;;19.37;44.94
54306;BME280;66145;45.188;5.712;2023-03-11T09:51:33;98391.69;;;19.47;44.69
54306;BME280;66145;45.188;5.712;2023-03-11T09:54:07;98386.06;;;19.43;44.76
54306;BME280;66145;45.188;5.712;2023-03-11T09:56:33;98374.19;;;19.39;44.67
54306;BME280;66145;45.188;5.712;2023-03-11T09:59:14;98373.97;;;19.44;44.39
54306;BME280;66145;45.188;5.712;2023-03-11T10:01:43;98374.09;;;19.48;44.61
54306;BME280;66145;45.188;5.712;2023-03-11T10:04:19;98374.88;;;19.48;44.29
54306;BME280;66145;45.188;5.712;2023-03-11T10:06:46;98379.34;;;19.40;44.93
54306;BME280;66145;45.188;5.712;2023-03-11T10:09:36;98393.03;;;19.40;45.02
54306;BME280;66145;45.188;5.712;2023-03-11T10:17:14;98387.56;;;19.40;44.83
54306;BME280;66145;45.188;5.712;2023-03-11T10:20:14;98392.03;;;19.45;44.35
54306;BME280;66145;45.188;5.712;2023-03-11T10:25:46;98401.66;;;19.51;44.40
54306;BME280;66145;45.188;5.712;2023-03-11T10:28:16;98401.97;;;19.50;44.42
54306;BME280;66145;45.188;5.712;2023-03-11T10:30:46;98389.75;;;19.47;44.33
54306;BME280;66145;45.188;5.712;2023-03-11T10:33:23;98385.41;;;19.46;44.48
54306;BME280;66145;45.188;5.712;2023-03-11T10:35:52;98364.38;;;19.38;44.65
54306;BME280;66145;45.188;5.712;2023-03-11T10:38:30;98376.00;;;19.35;44.49
54306;BME280;66145;45.188;5.712;2023-03-11T10:41:02;98372.31;;;19.18;44.97
54306;BME280;66145;45.188;5.712;2023-03-11T10:43:45;98377.13;;;19.21;45.10
54306;BME280;66145;45.188;5.712;2023-03-11T10:46:23;98397.47;;;19.33;45.05
54306;BME280;66145;45.188;5.712;2023-03-11T10:48:49;98405.03;;;19.36;44.79
54306;BME280;66145;45.188;5.712;2023-03-11T10:51:22;98403.53;;;19.38;44.93
54306;BME280;66145;45.188;5.712;2023-03-11T10:53:59;98387.34;;;19.33;44.53
54306;BME280;66145;45.188;5.712;2023-03-11T10:56:33;98364.31;;;19.25;44.72
54306;BME280;66145;45.188;5.712;2023-03-11T10:58:59;98376.38;;;19.33;44.72
54306;BME280;66145;45.188;5.712;2023-03-11T11:01:26;98395.91;;;19.44;44.53
54306;BME280;66145;45.188;5.712;2023-03-11T11:03:55;98403.53;;;19.38;44.74
54306;BME280;66145;45.188;5.712;2023-03-11T11:09:12;98363.16;;;19.14;44.93
54306;BME280;66145;45.188;5.712;2023-03-11T11:11:39;98370.63;;;19.26;45.00
54306;BME280;66145;45.188;5.712;2023-03-11T11:14:04;98372.03;;;19.32;45.03
54306;BME280;66145;45.188;5.712;2023-03-11T11:16:32;98395.28;;;19.26;44.96
54306;BME280;66145;45.188;5.712;2023-03-11T11:19:01;98397.75;;;19.40;44.89
54306;BME280;66145;45.188;5.712;2023-03-11T11:21:30;98405.06;;;19.48;44.15
54306;BME280;66145;45.188;5.712;2023-03-11T11:24:24;98380.81;;;19.38;44.28
54306;BME280;66145;45.188;5.712;2023-03-11T11:29:29;98367.22;;;19.41;44.63
54306;BME280;66145;45.188;5.712;2023-03-11T11:34:41;98379.59;;;19.48;44.87
54306;BME280;66145;45.188;5.712;2023-03-11T11:37:11;98387.56;;;19.40;44.88
54306;BME280;66145;45.188;5.712;2023-03-11T11:39:47;98396.53;;;19.28;45.10
54306;BME280;66145;45.188;5.712;2023-03-11T11:42:19;98384.97;;;19.10;45.24
54306;BME280;66145;45.188;5.712;2023-03-11T11:44:52;98378.72;;;19.22;45.20
54306;BME280;66145;45.188;5.712;2023-03-11T11:47:29;98402.84;;;19.29;44.76
54306;BME280;66145;45.188;5.712;2023-03-11T11:50:00;98401.38;;;19.32;44.51
54306;BME280;66145;45.188;5.712;2023-03-11T11:52:56;98417.84;;;19.44;44.92
54306;BME280;66145;45.188;5.712;2023-03-11T11:55:27;98396.84;;;19.48;44.51
54306;BME280;66145;45.188;5.712;2023-03-11T11:57:53;98406.31;;;19.51;44.16
54306;BME280;66145;45.188;5.712;2023-03-11T12:00:29;98393.88;;;19.41;44.30
54306;BME280;66145;45.188;5.712;2023-03-11T12:05:44;98395.56;;;19.33;44.95
54306;BME280;66145;45.188;5.712;2023-03-11T12:08:53;98402.97;;;19.33;44.89
54306;BME280;66145;45.188;5.712;2023-03-11T12:11:34;98402.84;;;19.29;45.26
54306;BME280;66145;45.188;5.712;2023-03-11T12:16:42;98366.13;;;19.09;44.23
54306;BME280;66145;45.188;5.712;2023-03-11T12:19:33;98396.13;;;19.39;44.97
54306;BME280;66145;45.188;5.712;2023-03-11T12:27:50;98395.34;;;19.51;44.41
54306;BME280;66145;45.188;5.712;2023-03-11T12:30:24;98380.34;;;19.36;43.93
54306;BME280;66145;45.188;5.712;2023-03-11T12:33:00;98390.50;;;19.35;44.88
54306;BME280;66145;45.188;5.712;2023-03-11T12:35:32;98394.84;;;19.36;45.17
54306;BME280;66145;45.188;5.712;2023-03-11T12:38:23;98390.97;;;19.37;45.15
54306;BME280;66145;45.188;5.712;2023-03-11T12:45:58;98393.41;;;19.39;45.47
54306;BME280;66145;45.188;5.712;2023-03-11T12:50:59;98357.38;;;19.28;45.01
54306;BME280;66145;45.188;5.712;2023-03-11T12:53:44;98372.97;;;19.49;45.15
54306;BME280;66145;45.188;5.712;2023-03-11T12:56:16;98386.91;;;19.56;44.71
54306;BME280;66145;45.188;5.712;2023-03-11T13:01:31;98371.69;;;19.46;45.50
54306;BME280;66145;45.188;5.712;2023-03-11T13:09:33;98381.97;;;19.37;45.79
54306;BME280;66145;45.188;5.712;2023-03-11T13:11:59;98369.47;;;19.27;45.72
54306;BME280;66145;45.188;5.712;2023-03-11T13:14:33;98377.50;;;19.32;45.71
54306;BME280;66145;45.188;5.712;2023-03-11T13:19:49;98379.34;;;19.53;45.29
54306;BME280;66145;45.188;5.712;2023-03-11T13:22:45;98377.19;;;19.58;45.07
54306;BME280;66145;45.188;5.712;2023-03-11T13:25:36;98371.25;;;19.56;45.16
54306;BME280;66145;45.188;5.712;2023-03-11T13:34:24;98364.59;;;19.33;45.51
54306;BME280;66145;45.188;5.712;2023-03-11T13:46:06;98379.22;;;19.37;46.06
54306;BME280;66145;45.188;5.712;2023-03-11T13:48:39;98373.28;;;19.47;45.70
54306;BME280;66145;45.188;5.712;2023-03-11T13:51:29;98359.56;;;19.47;44.70
54306;BME280;66145;45.188;5.712;2023-03-11T13:54:03;98374.69;;;19.53;45.53
54306;BME280;66145;45.188;5.712;2023-03-11T13:56:32;98363.00;;;19.44;44.92
54306;BME280;66145;45.188;5.712;2023-03-11T13:59:22;98374.44;;;19.46;45.63
54306;BME280;66145;45.188;5.712;2023-03-11T14:01:50;98372.34;;;19.30;45.25
54306;BME280;66145;45.188;5.712;2023-03-11T14:04:21;98343.75;;;19.07;45.67
54306;BME280;66145;45.188;5.712;2023-03-11T14:06:47;98367.63;;;19.19;45.76
54306;BME280;66145;45.188;5.712;2023-03-11T14:09:18;98378.16;;;19.17;47.18
54306;BME280;66145;45.188;5.712;2023-03-11T14:11:44;98380.34;;;19.02;46.51
54306;BME280;66145;45.188;5.712;2023-03-11T14:17:14;98370.16;;;19.24;45.93
54306;BME280;66145;45.188;5.712;2023-03-11T14:19:41;98378.75;;;19.35;45.06
54306;BME280;66145;45.188;5.712;2023-03-11T14:22:08;98377.81;;;19.30;45.12
54306;BME280;66145;45.188;5.712;2023-03-11T14:24:34;98355.53;;;19.20;45.54